createdAt,value
2023-06-15T00:02:23.506Z,92.58
2023-06-15T00:04:51.717Z,92.59
2023-06-15T00:07:19.025Z,92.55
2023-06-15T00:09:46.107Z,92.67
2023-06-15T00:22:50.068Z,92.70
2023-06-15T00:25:17.259Z,92.68
2023-06-15T00:27:44.720Z,92.75
2023-06-15T00:30:13.429Z,92.89
2023-06-15T00:32:40.945Z,93.01
2023-06-15T00:35:08.771Z,92.96
2023-06-15T00:37:36.081Z,93.25
2023-06-15T00:40:06.536Z,93.30
2023-06-15T00:42:33.944Z,93.35
2023-06-15T00:45:01.978Z,93.63
2023-06-15T00:47:29.224Z,93.95
2023-06-15T00:49:58.203Z,94.05
2023-06-15T00:52:26.335Z,94.18
2023-06-15T00:54:53.504Z,94.29
2023-06-15T00:57:25.029Z,94.30
2023-06-15T00:59:52.133Z,94.31
2023-06-15T01:02:19.282Z,94.46
2023-06-15T01:04:46.460Z,94.59
2023-06-15T01:07:13.636Z,94.67
2023-06-15T01:09:43.488Z,94.68
2023-06-15T01:12:13.021Z,94.73
2023-06-15T01:14:41.429Z,94.71
2023-06-15T01:17:16.398Z,94.88
2023-06-15T01:20:04.848Z,94.69
2023-06-15T01:22:58.399Z,94.72
2023-06-15T01:25:44.901Z,94.82
2023-06-15T01:28:18.263Z,94.85
2023-06-15T01:30:49.323Z,94.99
2023-06-15T01:33:16.790Z,94.90
2023-06-15T01:35:44.160Z,95.13
2023-06-15T01:38:12.759Z,95.21
2023-06-15T01:40:50.498Z,95.40
2023-06-15T01:43:26.391Z,95.44
2023-06-15T01:45:56.060Z,95.48
2023-06-15T01:48:26.222Z,95.56
2023-06-15T01:50:54.638Z,95.43
2023-06-15T01:53:22.812Z,95.58
2023-06-15T01:55:50.954Z,95.69
2023-06-15T01:58:18.090Z,95.87
2023-06-15T02:00:47.534Z,96.03
2023-06-15T02:03:15.377Z,96.20
2023-06-15T02:05:42.523Z,96.27
2023-06-15T02:08:11.626Z,96.24
2023-06-15T02:10:39.798Z,96.13
2023-06-15T02:13:09.048Z,96.08
2023-06-15T02:15:37.189Z,96.10
2023-06-15T02:18:12.446Z,96.34
2023-06-15T02:20:44.341Z,96.43
2023-06-15T02:23:12.164Z,96.41
2023-06-15T02:25:39.659Z,96.40
2023-06-15T02:28:06.956Z,96.41
2023-06-15T02:30:34.204Z,96.43
2023-06-15T02:33:01.909Z,96.49
2023-06-15T02:35:29.343Z,96.61
2023-06-15T02:37:56.625Z,96.62
2023-06-15T02:40:24.537Z,96.54
2023-06-15T02:42:51.773Z,96.74
2023-06-15T02:45:19.526Z,96.93
2023-06-15T02:47:47.811Z,96.85
2023-06-15T02:50:15.128Z,96.87
2023-06-15T02:52:45.627Z,96.65
2023-06-15T02:55:13.995Z,96.56
2023-06-15T02:57:42.092Z,96.29
2023-06-15T03:00:14.552Z,96.44
2023-06-15T03:02:43.757Z,96.54
2023-06-15T03:07:53.993Z,96.75
2023-06-15T03:10:21.232Z,96.80
2023-06-15T03:12:48.380Z,96.79
2023-06-15T03:15:17.599Z,96.92
2023-06-15T03:17:45.255Z,96.89
2023-06-15T03:20:12.474Z,96.95
2023-06-15T03:22:40.255Z,97.00
2023-06-15T03:25:11.470Z,97.04
2023-06-15T03:27:41.292Z,97.20
2023-06-15T03:30:11.235Z,97.22
2023-06-15T03:32:38.664Z,97.05
2023-06-15T03:35:08.289Z,97.03
2023-06-15T03:37:36.154Z,96.98
2023-06-15T03:40:06.349Z,96.93
2023-06-15T03:42:33.785Z,96.88
2023-06-15T03:45:01.337Z,96.73
2023-06-15T03:47:28.597Z,96.92
2023-06-15T03:49:56.033Z,97.00
2023-06-15T03:52:23.222Z,96.96
2023-06-15T03:54:50.412Z,97.08
2023-06-15T03:57:18.107Z,97.04
2023-06-15T03:59:45.147Z,97.11
2023-06-15T04:02:12.216Z,97.18
2023-06-15T04:04:40.374Z,97.29
2023-06-15T04:07:09.469Z,97.38
2023-06-15T04:09:38.448Z,97.47
2023-06-15T04:12:06.174Z,97.58
2023-06-15T04:14:33.412Z,97.50
2023-06-15T04:17:01.010Z,97.47
2023-06-15T04:19:28.272Z,97.58
2023-06-15T04:21:55.994Z,97.36
2023-06-15T04:24:24.363Z,97.43
2023-06-15T04:26:51.662Z,97.48
2023-06-15T04:29:19.708Z,97.76
2023-06-15T04:31:55.732Z,97.88
2023-06-15T04:34:23.006Z,97.98
2023-06-15T04:52:17.589Z,97.33
2023-06-15T04:54:44.583Z,96.90
2023-06-15T04:57:11.859Z,97.12
2023-06-15T04:59:39.212Z,97.24
2023-06-15T05:02:07.497Z,97.37
2023-06-15T05:04:35.031Z,97.64
2023-06-15T05:07:02.199Z,97.81
2023-06-15T05:09:29.467Z,97.95
2023-06-15T05:11:57.456Z,97.75
2023-06-15T05:14:26.769Z,98.00
2023-06-15T05:16:54.387Z,97.87
2023-06-15T05:19:21.524Z,97.50
2023-06-15T05:21:50.767Z,97.49
2023-06-15T05:24:21.536Z,97.52
2023-06-15T05:27:14.321Z,97.29
2023-06-15T05:29:41.575Z,97.16
2023-06-15T05:32:08.816Z,97.01
2023-06-15T05:34:36.040Z,96.97
2023-06-15T05:37:03.392Z,97.21
2023-06-15T05:39:32.879Z,97.21
2023-06-15T05:42:01.717Z,97.46
2023-06-15T05:44:28.887Z,97.61
2023-06-15T05:46:56.012Z,97.50
2023-06-15T05:49:23.393Z,97.28
2023-06-15T05:51:50.816Z,96.94
2023-06-15T05:54:19.362Z,96.83
2023-06-15T05:56:46.488Z,96.69
2023-06-15T05:59:27.688Z,97.00
2023-06-15T06:01:58.746Z,97.25
2023-06-15T06:04:25.722Z,97.11
2023-06-15T06:06:54.795Z,96.64
2023-06-15T06:09:21.981Z,96.73
2023-06-15T06:11:49.141Z,96.82
2023-06-15T06:14:16.504Z,96.98
2023-06-15T06:16:44.284Z,96.89
2023-06-15T06:19:11.612Z,97.07
2023-06-15T06:21:38.672Z,96.82
2023-06-15T06:24:06.307Z,96.85
2023-06-15T06:26:36.256Z,96.90
2023-06-15T06:29:04.028Z,96.94
2023-06-15T06:31:31.363Z,96.97
2023-06-15T06:33:58.379Z,96.92
2023-06-15T06:36:28.632Z,97.12
2023-06-15T06:39:02.620Z,97.47
2023-06-15T06:41:31.829Z,97.46
2023-06-15T06:43:59.077Z,97.11
2023-06-15T06:46:26.151Z,96.77
2023-06-15T06:48:53.427Z,96.83
2023-06-15T06:51:20.676Z,96.75
2023-06-15T06:53:47.907Z,96.50
2023-06-15T06:56:15.258Z,96.27
2023-06-15T06:58:42.570Z,95.95
2023-06-15T07:01:09.868Z,95.76
2023-06-15T07:03:39.575Z,95.46
2023-06-15T07:06:06.910Z,95.40
2023-06-15T07:08:35.145Z,95.17
2023-06-15T07:11:03.329Z,95.38
2023-06-15T07:13:30.339Z,95.40
2023-06-15T07:15:58.257Z,95.25
2023-06-15T07:18:26.318Z,94.97
2023-06-15T07:20:56.398Z,95.15
2023-06-15T07:23:25.498Z,95.17
2023-06-15T07:25:53.709Z,95.68
2023-06-15T07:28:21.207Z,95.84
2023-06-15T07:30:51.369Z,94.94
2023-06-15T07:33:21.478Z,95.30
2023-06-15T07:35:48.834Z,94.93
2023-06-15T07:38:16.036Z,95.21
2023-06-15T07:40:43.509Z,95.12
2023-06-15T07:43:10.986Z,94.46
2023-06-15T07:45:38.161Z,94.00
2023-06-15T07:48:06.237Z,94.21
2023-06-15T07:50:33.885Z,94.24
2023-06-15T07:53:00.959Z,93.51
2023-06-15T07:55:28.069Z,93.51
2023-06-15T07:57:55.134Z,93.61
2023-06-15T08:00:23.063Z,93.36
2023-06-15T08:02:51.668Z,92.81
2023-06-15T08:05:18.916Z,92.39
2023-06-15T08:07:45.923Z,91.93
2023-06-15T08:10:13.206Z,91.37
2023-06-15T08:12:40.472Z,91.03
2023-06-15T08:15:07.861Z,90.18
2023-06-15T08:17:37.647Z,89.71
2023-06-15T08:20:07.943Z,89.30
2023-06-15T08:22:35.416Z,89.21
2023-06-15T08:25:03.734Z,89.26
2023-06-15T08:27:30.993Z,89.32
2023-06-15T08:29:57.982Z,89.35
2023-06-15T08:32:25.042Z,89.49
2023-06-15T08:34:52.672Z,89.58
2023-06-15T08:37:19.726Z,89.39
2023-06-15T08:39:48.064Z,89.30
2023-06-15T08:42:18.134Z,89.18
2023-06-15T08:44:50.409Z,89.55
2023-06-15T08:47:17.623Z,89.80
2023-06-15T08:49:45.106Z,89.23
2023-06-15T08:52:16.576Z,88.98
2023-06-15T08:54:44.262Z,89.12
2023-06-15T08:57:11.406Z,89.53
2023-06-15T08:59:42.107Z,89.15
2023-06-15T09:02:20.027Z,88.83
2023-06-15T09:04:53.042Z,89.34
2023-06-15T09:07:24.591Z,89.55
2023-06-15T09:10:22.611Z,89.56
2023-06-15T09:12:56.121Z,89.69
2023-06-15T09:15:28.592Z,90.13
2023-06-15T09:18:01.621Z,90.44
2023-06-15T09:20:32.114Z,90.81
2023-06-15T09:23:06.865Z,91.24
2023-06-15T09:25:36.904Z,91.19
2023-06-15T09:28:10.285Z,91.52
2023-06-15T09:30:40.865Z,91.71
2023-06-15T09:33:19.607Z,91.07
2023-06-15T09:35:58.001Z,90.52
2023-06-15T09:38:40.883Z,90.40
2023-06-15T09:41:09.665Z,90.74
2023-06-15T09:43:41.653Z,91.02
2023-06-15T09:46:14.676Z,91.30
2023-06-15T09:48:44.863Z,91.40
2023-06-15T09:51:12.156Z,91.58
2023-06-15T09:53:40.506Z,91.47
2023-06-15T09:56:25.331Z,91.81
2023-06-15T09:58:59.839Z,91.91
2023-06-15T10:01:31.869Z,91.70
2023-06-15T10:04:06.177Z,91.75
2023-06-15T10:06:37.651Z,91.83
2023-06-15T10:09:14.051Z,91.50
2023-06-15T10:11:46.528Z,91.31
2023-06-15T10:14:24.526Z,91.57
2023-06-15T10:17:01.771Z,91.94
2023-06-15T10:19:33.461Z,92.06
2023-06-15T10:22:02.446Z,92.42
2023-06-15T10:24:37.583Z,93.57
2023-06-15T10:27:07.196Z,93.40
2023-06-15T10:30:24.370Z,93.39
2023-06-15T10:33:30.585Z,94.10
2023-06-15T10:36:11.240Z,93.70
2023-06-15T10:38:48.081Z,92.78
2023-06-15T10:41:15.572Z,90.69
2023-06-15T10:44:00.047Z,88.46
2023-06-15T10:46:37.172Z,85.59
2023-06-15T10:49:08.088Z,84.06
2023-06-15T10:51:40.312Z,84.21
2023-06-15T10:54:23.547Z,83.29
2023-06-15T10:56:54.937Z,81.68
2023-06-15T10:59:55.646Z,80.04
2023-06-15T11:02:29.018Z,78.78
2023-06-15T11:05:09.651Z,78.36
2023-06-15T11:07:39.640Z,78.23
2023-06-15T11:10:17.530Z,77.29
2023-06-15T11:12:47.332Z,76.27
2023-06-15T11:15:16.820Z,75.85
2023-06-15T11:18:01.352Z,75.69
2023-06-15T11:20:48.008Z,75.20
2023-06-15T11:23:19.745Z,75.17
2023-06-15T11:25:49.394Z,75.15
2023-06-15T11:28:35.910Z,75.15
2023-06-15T11:31:06.792Z,74.69
2023-06-15T11:33:37.172Z,73.77
2023-06-15T11:36:07.497Z,73.56
2023-06-15T11:38:35.775Z,73.13
2023-06-15T11:41:10.078Z,72.41
2023-06-15T11:43:48.678Z,71.55
2023-06-15T11:46:21.472Z,70.50
2023-06-15T11:48:54.239Z,69.80
2023-06-15T11:51:21.539Z,68.05
2023-06-15T11:53:48.778Z,66.76
2023-06-15T11:56:17.366Z,66.49
2023-06-15T11:58:47.955Z,66.64
2023-06-15T12:01:18.473Z,67.13
2023-06-15T12:06:24.409Z,66.92
2023-06-15T12:08:55.298Z,66.98
2023-06-15T12:11:24.921Z,67.61
2023-06-15T12:14:09.669Z,67.92
2023-06-15T12:16:38.935Z,68.23
2023-06-15T12:19:09.489Z,68.50
2023-06-15T12:21:39.291Z,68.39
2023-06-15T12:24:18.612Z,67.41
2023-06-15T12:26:52.589Z,65.93
2023-06-15T12:29:22.579Z,64.29
2023-06-15T12:31:52.729Z,64.16
2023-06-15T12:34:24.550Z,63.19
2023-06-15T12:36:53.079Z,63.52
2023-06-15T12:39:25.540Z,63.97
2023-06-15T12:41:58.590Z,63.66
2023-06-15T12:44:25.862Z,62.44
2023-06-15T12:51:47.890Z,61.28
2023-06-15T12:54:16.518Z,60.92
2023-06-15T12:56:44.972Z,59.67
2023-06-15T12:59:13.437Z,58.65
2023-06-15T13:01:42.089Z,58.70
2023-06-15T13:04:14.271Z,58.25
2023-06-15T13:06:42.943Z,58.16
2023-06-15T13:09:11.688Z,58.47
2023-06-15T13:11:41.781Z,58.50
2023-06-15T13:14:10.398Z,57.80
2023-06-15T13:16:39.041Z,57.15
2023-06-15T13:19:09.490Z,56.26
2023-06-15T13:21:38.297Z,56.66
2023-06-15T13:24:06.818Z,57.14
2023-06-15T13:26:35.453Z,56.38
2023-06-15T13:29:04.248Z,54.13
2023-06-15T13:31:32.834Z,53.06
2023-06-15T13:34:01.555Z,52.82
2023-06-15T13:36:30.141Z,52.02
2023-06-15T13:38:58.863Z,51.00
2023-06-15T13:41:29.647Z,50.56
2023-06-15T13:43:58.958Z,50.25
2023-06-15T13:46:28.911Z,49.82
2023-06-15T13:48:58.190Z,49.96
2023-06-15T13:51:26.942Z,50.32
2023-06-15T13:53:55.784Z,50.43
2023-06-15T13:56:37.268Z,50.51
2023-06-15T13:59:06.108Z,51.21
2023-06-15T14:01:36.702Z,51.06
2023-06-15T14:04:08.468Z,51.21
2023-06-15T14:06:47.103Z,51.81
2023-06-15T14:09:18.735Z,51.84
2023-06-15T14:11:47.215Z,52.22
2023-06-15T14:14:15.700Z,52.58
2023-06-15T14:16:44.473Z,52.94
2023-06-15T14:19:14.122Z,53.74
2023-06-15T14:21:45.361Z,54.07
2023-06-15T14:24:14.283Z,54.63
2023-06-15T14:26:43.303Z,55.16
2023-06-15T14:29:16.353Z,55.36
2023-06-15T14:31:50.796Z,55.47
2023-06-15T14:34:22.554Z,55.72
2023-06-15T14:36:51.833Z,55.94
2023-06-15T14:39:21.909Z,56.10
2023-06-15T14:41:50.494Z,55.93
2023-06-15T14:44:19.155Z,56.06
2023-06-15T14:46:48.268Z,56.20
2023-06-15T14:49:16.791Z,55.89
2023-06-15T14:51:45.308Z,55.87
2023-06-15T14:54:13.731Z,55.27
2023-06-15T14:56:42.678Z,55.17
2023-06-15T14:59:11.497Z,55.01
2023-06-15T15:01:42.535Z,54.49
2023-06-15T15:04:11.819Z,53.26
2023-06-15T15:06:40.818Z,52.39
2023-06-15T15:09:09.411Z,52.10
2023-06-15T15:11:38.079Z,51.79
2023-06-15T15:14:25.233Z,51.47
2023-06-15T15:16:57.944Z,51.64
2023-06-15T15:19:26.417Z,51.71
2023-06-15T15:21:55.349Z,51.67
2023-06-15T15:24:24.612Z,50.56
2023-06-15T15:26:53.074Z,50.49
2023-06-15T15:29:21.568Z,50.37
2023-06-15T15:31:50.063Z,50.11
2023-06-15T15:34:19.023Z,49.92
2023-06-15T15:36:49.720Z,49.60
2023-06-15T15:39:18.394Z,48.64
2023-06-15T15:41:47.645Z,48.56
2023-06-15T15:44:19.464Z,48.48
2023-06-15T15:46:48.682Z,48.30
2023-06-15T15:49:17.580Z,48.11
2023-06-15T15:51:46.238Z,47.96
2023-06-15T15:54:14.913Z,47.65
2023-06-15T15:56:43.432Z,47.85
2023-06-15T15:59:12.181Z,47.29
2023-06-15T16:01:40.937Z,47.86
2023-06-15T16:04:09.635Z,47.81
2023-06-15T16:06:38.200Z,47.54
2023-06-15T16:09:07.096Z,47.53
2023-06-15T16:11:36.656Z,46.90
2023-06-15T16:14:06.457Z,46.36
2023-06-15T16:16:35.329Z,46.12
2023-06-15T16:19:04.062Z,45.69
2023-06-15T16:21:32.817Z,45.40
2023-06-15T16:24:01.698Z,45.37
2023-06-15T16:26:30.450Z,45.16
2023-06-15T16:28:59.672Z,44.83
2023-06-15T16:31:28.319Z,44.65
2023-06-15T16:33:57.435Z,44.47
2023-06-15T16:36:26.361Z,44.67
2023-06-15T16:39:05.516Z,44.92
2023-06-15T16:41:36.971Z,45.12
2023-06-15T16:44:06.966Z,44.32
2023-06-15T16:46:35.871Z,43.62
2023-06-15T16:49:07.582Z,43.49
2023-06-15T16:51:37.345Z,43.22
2023-06-15T16:54:06.151Z,42.65
2023-06-15T16:56:35.768Z,42.85
2023-06-15T16:59:04.283Z,42.55
2023-06-15T17:01:33.575Z,42.31
2023-06-15T17:04:02.489Z,42.31
2023-06-15T17:06:31.179Z,42.46
2023-06-15T17:08:59.917Z,42.62
2023-06-15T17:11:28.417Z,42.68
2023-06-15T17:14:02.442Z,42.57
2023-06-15T17:16:31.092Z,42.61
2023-06-15T17:18:59.557Z,42.51
2023-06-15T17:21:31.434Z,42.84
2023-06-15T17:23:59.970Z,43.11
2023-06-15T17:26:28.572Z,42.55
2023-06-15T17:28:57.142Z,42.75
2023-06-15T17:31:29.044Z,42.21
2023-06-15T17:33:57.583Z,42.29
2023-06-15T17:36:26.693Z,42.19
2023-06-15T17:38:55.599Z,41.86
2023-06-15T17:41:24.869Z,41.78
2023-06-15T17:43:54.253Z,41.81
2023-06-15T17:46:23.194Z,41.71
2023-06-15T17:48:51.867Z,41.87
2023-06-15T17:51:20.689Z,41.77
2023-06-15T17:53:49.753Z,41.57
2023-06-15T17:56:18.313Z,41.69
2023-06-15T17:58:47.284Z,41.62
2023-06-15T18:01:16.770Z,41.53
2023-06-15T18:03:45.547Z,41.83
2023-06-15T18:06:14.207Z,41.86
2023-06-15T18:08:43.393Z,41.98
2023-06-15T18:11:11.939Z,42.28
2023-06-15T18:13:40.819Z,42.24
2023-06-15T18:16:09.524Z,42.34
2023-06-15T18:18:38.162Z,42.71
2023-06-15T18:21:07.143Z,43.15
2023-06-15T18:23:35.642Z,43.60
2023-06-15T18:26:06.826Z,44.29
2023-06-15T18:28:38.278Z,44.84
2023-06-15T18:31:07.300Z,45.47
2023-06-15T18:33:36.370Z,46.03
2023-06-15T18:36:05.177Z,46.68
2023-06-15T18:38:34.658Z,47.29
2023-06-15T18:41:03.653Z,47.90
2023-06-15T18:43:32.126Z,48.28
2023-06-15T18:46:01.066Z,48.91
2023-06-15T18:48:29.496Z,49.58
2023-06-15T18:50:57.970Z,50.18
2023-06-15T18:53:28.443Z,50.74
2023-06-15T18:55:58.027Z,51.55
2023-06-15T18:58:27.024Z,52.06
2023-06-15T19:00:55.761Z,52.71
2023-06-15T19:03:25.110Z,53.33
2023-06-15T19:05:55.696Z,53.90
2023-06-15T19:08:24.419Z,54.43
2023-06-15T19:10:52.837Z,55.17
2023-06-15T19:13:24.185Z,55.62
2023-06-15T19:15:53.397Z,56.05
2023-06-15T19:18:22.232Z,56.64
2023-06-15T19:20:52.052Z,57.10
2023-06-15T19:23:21.193Z,57.54
2023-06-15T19:25:53.704Z,58.11
2023-06-15T19:28:22.613Z,58.46
2023-06-15T19:30:51.249Z,58.96
2023-06-15T19:33:25.677Z,59.38
2023-06-15T19:35:55.426Z,59.77
2023-06-15T19:38:23.981Z,60.15
2023-06-15T19:40:59.287Z,60.51
2023-06-15T19:43:28.339Z,60.93
2023-06-15T19:46:02.171Z,61.20
2023-06-15T19:48:31.040Z,61.58
2023-06-15T19:50:59.882Z,61.88
2023-06-15T19:53:31.928Z,62.11
2023-06-15T19:56:11.147Z,62.64
2023-06-15T19:58:40.166Z,63.08
2023-06-15T20:01:08.837Z,63.41
2023-06-15T20:03:37.881Z,63.64
2023-06-15T20:06:10.160Z,64.04
2023-06-15T20:08:39.498Z,64.39
2023-06-15T20:11:10.555Z,64.80
2023-06-15T20:13:39.198Z,64.96
2023-06-15T20:16:15.245Z,65.46
2023-06-15T20:18:51.230Z,65.79
2023-06-15T20:21:22.051Z,66.21
2023-06-15T20:23:50.874Z,66.45
2023-06-15T20:26:19.519Z,66.83
2023-06-15T20:31:36.012Z,67.79
2023-06-15T20:34:04.628Z,68.06
2023-06-15T20:36:34.493Z,68.23
2023-06-15T20:39:04.802Z,68.21
2023-06-15T20:41:33.259Z,68.55
2023-06-15T20:44:01.676Z,68.72
2023-06-15T20:46:31.758Z,68.95
2023-06-15T20:49:01.555Z,69.12
2023-06-15T20:51:30.128Z,69.38
2023-06-15T20:53:59.522Z,69.70
2023-06-15T20:56:27.930Z,69.90
2023-06-15T20:58:56.300Z,70.10
2023-06-15T21:01:24.888Z,70.39
2023-06-15T21:03:53.334Z,70.47
2023-06-15T21:06:21.857Z,70.71
2023-06-15T21:08:51.584Z,70.77
2023-06-15T21:11:20.219Z,71.02
2023-06-15T21:13:50.576Z,71.22
2023-06-15T21:16:19.325Z,71.23
2023-06-15T21:18:47.846Z,71.53
2023-06-15T21:21:16.315Z,71.74
2023-06-15T21:23:45.595Z,71.84
2023-06-15T21:26:14.501Z,72.15
2023-06-15T21:28:43.128Z,72.32
2023-06-15T21:31:11.660Z,72.47
2023-06-15T21:33:40.054Z,72.68
2023-06-15T21:36:08.682Z,73.09
2023-06-15T21:38:37.178Z,73.22
2023-06-15T21:41:06.129Z,73.35
2023-06-15T21:43:39.404Z,73.39
2023-06-15T21:46:08.037Z,73.72
2023-06-15T21:48:36.590Z,74.07
2023-06-15T21:51:05.349Z,74.32
2023-06-15T21:53:33.843Z,74.47
2023-06-15T21:56:02.259Z,74.53
2023-06-15T21:58:31.189Z,74.84
2023-06-15T22:00:59.723Z,74.94
2023-06-15T22:03:28.503Z,75.12
2023-06-15T22:05:57.054Z,75.36
2023-06-15T22:08:25.646Z,75.50
2023-06-15T22:10:54.234Z,75.51
2023-06-15T22:13:22.713Z,75.59
2023-06-15T22:15:55.745Z,75.72
2023-06-15T22:18:27.222Z,75.94
2023-06-15T22:20:58.847Z,76.20
2023-06-15T22:23:28.705Z,76.57
2023-06-15T22:25:57.450Z,76.82
2023-06-15T22:28:26.274Z,76.92
2023-06-15T22:30:54.770Z,77.36
2023-06-15T22:33:24.915Z,77.63
2023-06-15T22:35:53.716Z,77.82
2023-06-15T22:38:22.673Z,78.04
2023-06-15T22:40:51.699Z,78.32
2023-06-15T22:43:20.328Z,78.65
2023-06-15T22:45:48.867Z,78.72
2023-06-15T22:48:23.943Z,78.92
2023-06-15T22:50:58.586Z,79.02
2023-06-15T22:53:27.107Z,79.22
2023-06-15T22:55:56.185Z,79.22
2023-06-15T22:58:24.860Z,79.30
2023-06-15T23:00:55.125Z,79.34
2023-06-15T23:03:23.832Z,79.42
2023-06-15T23:05:52.305Z,79.59
2023-06-15T23:08:23.750Z,79.71
2023-06-15T23:10:54.108Z,79.77
2023-06-15T23:13:22.775Z,79.65
2023-06-15T23:15:56.939Z,79.51
2023-06-15T23:18:28.178Z,79.30
2023-06-15T23:21:00.244Z,79.23
2023-06-15T23:23:35.133Z,79.29
2023-06-15T23:26:06.748Z,79.27
2023-06-15T23:28:39.114Z,79.16
2023-06-15T23:31:08.476Z,79.25
2023-06-15T23:33:37.098Z,79.23
2023-06-15T23:36:09.812Z,79.14
2023-06-15T23:38:38.283Z,79.17
2023-06-15T23:41:10.612Z,79.18
2023-06-15T23:43:41.771Z,79.10
2023-06-15T23:46:32.982Z,79.20
2023-06-15T23:49:04.341Z,79.34
2023-06-15T23:51:32.887Z,79.46
